createdAt,value
2023-01-22T00:04:41.335Z,0
2023-01-22T00:09:41.255Z,0
2023-01-22T00:14:41.373Z,0
2023-01-22T00:19:41.191Z,0
2023-01-22T00:24:41.244Z,0
2023-01-22T00:29:41.296Z,0
2023-01-22T00:34:41.021Z,0
2023-01-22T00:39:40.723Z,0
2023-01-22T00:44:41.060Z,0
2023-01-22T00:49:41.088Z,0
2023-01-22T00:54:40.955Z,0
2023-01-22T00:59:41.038Z,0
2023-01-22T01:04:41.087Z,0
2023-01-22T01:09:40.903Z,0
2023-01-22T01:14:41.035Z,0
2023-01-22T01:19:41.044Z,0
2023-01-22T01:24:40.814Z,0
2023-01-22T01:29:40.776Z,0
2023-01-22T01:34:40.978Z,0
2023-01-22T01:39:41.062Z,0
2023-01-22T01:44:40.732Z,0
2023-01-22T01:49:40.951Z,0
2023-01-22T01:54:40.674Z,0
2023-01-22T01:59:41.894Z,0
2023-01-22T02:04:40.937Z,0
2023-01-22T02:09:41.082Z,0
2023-01-22T02:16:10.750Z,0
2023-01-22T02:19:41.546Z,0
2023-01-22T02:24:41.054Z,0
2023-01-22T02:29:40.858Z,0
2023-01-22T02:34:41.282Z,0
2023-01-22T02:39:40.766Z,0
2023-01-22T02:44:41.201Z,0
2023-01-22T02:49:41.000Z,0
2023-01-22T02:54:40.960Z,0
2023-01-22T02:59:40.962Z,0
2023-01-22T03:04:40.835Z,0
2023-01-22T03:09:41.351Z,0
2023-01-22T03:14:40.992Z,0
2023-01-22T03:19:40.978Z,0
2023-01-22T03:24:41.038Z,0
2023-01-22T03:29:40.694Z,0
2023-01-22T03:34:40.707Z,0
2023-01-22T03:39:40.803Z,0
2023-01-22T03:44:40.856Z,0
2023-01-22T03:49:40.957Z,0
2023-01-22T03:54:40.679Z,0
2023-01-22T03:59:40.836Z,0
2023-01-22T04:04:40.794Z,0
2023-01-22T04:09:40.978Z,0
2023-01-22T04:14:40.966Z,0
2023-01-22T04:19:40.611Z,0
2023-01-22T04:24:40.665Z,0
2023-01-22T04:29:40.777Z,0
2023-01-22T04:34:40.868Z,0
2023-01-22T04:39:41.288Z,0
2023-01-22T04:44:40.957Z,0
2023-01-22T04:49:41.081Z,0
2023-01-22T04:54:41.423Z,0
2023-01-22T04:59:41.140Z,0
2023-01-22T05:04:40.667Z,0
2023-01-22T05:09:41.048Z,0
2023-01-22T05:14:40.785Z,0
2023-01-22T05:19:41.619Z,0
2023-01-22T05:24:40.869Z,0
2023-01-22T05:29:41.164Z,0
2023-01-22T05:34:41.197Z,0
2023-01-22T05:39:40.487Z,0
2023-01-22T05:44:40.720Z,0
2023-01-22T05:49:40.526Z,0
2023-01-22T05:54:41.005Z,0
2023-01-22T05:59:40.928Z,0
2023-01-22T06:04:40.584Z,0
2023-01-22T06:09:40.691Z,0
2023-01-22T06:14:41.005Z,0
2023-01-22T06:19:40.959Z,0
2023-01-22T06:24:41.100Z,0
2023-01-22T06:29:40.579Z,0
2023-01-22T06:34:40.656Z,0
2023-01-22T06:39:40.526Z,0
2023-01-22T06:44:41.167Z,0
2023-01-22T06:49:40.618Z,0
2023-01-22T06:54:41.120Z,0
2023-01-22T06:59:40.590Z,0
2023-01-22T07:04:40.800Z,0
2023-01-22T07:09:40.851Z,0
2023-01-22T07:14:40.679Z,0
2023-01-22T07:19:40.760Z,0
2023-01-22T07:24:40.558Z,0
2023-01-22T07:29:41.080Z,0
2023-01-22T07:34:40.708Z,0.4
2023-01-22T07:39:40.754Z,1
2023-01-22T07:44:40.843Z,1.5
2023-01-22T07:49:40.753Z,1.8
2023-01-22T07:54:40.840Z,2.7
2023-01-22T07:59:40.711Z,3.4
2023-01-22T08:04:40.622Z,4.5
2023-01-22T08:09:41.013Z,4.8
2023-01-22T08:14:40.916Z,5.2
2023-01-22T08:19:40.824Z,6.4
2023-01-22T08:24:40.623Z,7.4
2023-01-22T08:29:40.667Z,8
2023-01-22T08:34:40.564Z,9.7
2023-01-22T08:39:40.896Z,14.8
2023-01-22T08:44:40.480Z,19.2
2023-01-22T08:49:40.779Z,21.3
2023-01-22T08:54:40.504Z,25
2023-01-22T08:59:43.081Z,22
2023-01-22T09:04:40.891Z,19
2023-01-22T09:09:40.372Z,18.5
2023-01-22T09:14:40.765Z,25.1
2023-01-22T09:19:40.481Z,28
2023-01-22T09:24:40.749Z,36.2
2023-01-22T09:29:40.540Z,46.1
2023-01-22T09:34:40.535Z,46.6
2023-01-22T09:39:40.305Z,44.5
2023-01-22T09:44:40.371Z,43.3
2023-01-22T09:49:40.881Z,50.3
2023-01-22T09:54:41.046Z,52.2
2023-01-22T09:59:43.917Z,54.4
2023-01-22T10:04:40.528Z,61.2
2023-01-22T10:09:44.269Z,66.8
2023-01-22T10:14:41.479Z,70.4
2023-01-22T10:19:40.594Z,70.3
2023-01-22T10:24:40.927Z,65.2
2023-01-22T10:29:40.570Z,57.1
2023-01-22T10:34:40.884Z,48
2023-01-22T10:39:40.451Z,42.5
2023-01-22T10:44:40.637Z,40.1
2023-01-22T10:49:40.422Z,37.8
2023-01-22T10:54:40.372Z,43.4
2023-01-22T10:59:47.061Z,52.1
2023-01-22T11:04:40.627Z,65.2
2023-01-22T11:09:40.393Z,77.8
2023-01-22T11:14:40.533Z,84.1
2023-01-22T11:19:40.498Z,82
2023-01-22T11:24:40.493Z,79.3
2023-01-22T11:29:40.405Z,75.8
2023-01-22T11:34:40.406Z,77
2023-01-22T11:39:40.352Z,80.2
2023-01-22T11:44:40.375Z,81
2023-01-22T11:49:48.097Z,72.4
2023-01-22T11:54:40.511Z,70.6
2023-01-22T11:59:40.393Z,72.8
2023-01-22T12:04:40.553Z,80.7
2023-01-22T12:09:40.329Z,80.2
2023-01-22T12:14:47.505Z,77.1
2023-01-22T12:19:40.301Z,73.3
2023-01-22T12:24:40.224Z,70.8
2023-01-22T12:29:42.625Z,69.5
2023-01-22T12:34:40.451Z,73.4
2023-01-22T12:39:40.429Z,76.3
2023-01-22T12:44:40.373Z,75.7
2023-01-22T12:49:40.493Z,72.8
2023-01-22T12:54:40.611Z,66.1
2023-01-22T12:59:40.279Z,57.4
2023-01-22T13:04:40.515Z,52.7
2023-01-22T13:09:40.312Z,50.3
2023-01-22T13:14:40.776Z,50.2
2023-01-22T13:19:42.585Z,57.1
2023-01-22T13:24:40.475Z,49
2023-01-22T13:29:40.953Z,52.3
2023-01-22T13:34:40.984Z,45
2023-01-22T13:39:40.251Z,46.9
2023-01-22T13:44:42.472Z,56.5
2023-01-22T13:49:42.186Z,58.6
2023-01-22T13:54:42.363Z,55.5
2023-01-22T13:59:40.424Z,50
2023-01-22T14:04:40.667Z,44.8
2023-01-22T14:09:40.552Z,40.7
2023-01-22T14:14:41.128Z,41
2023-01-22T14:19:40.395Z,39.7
2023-01-22T14:24:40.268Z,41.5
2023-01-22T14:29:40.429Z,41.7
2023-01-22T14:34:40.555Z,34.1
2023-01-22T14:39:40.100Z,27.8
2023-01-22T14:44:40.627Z,24.5
2023-01-22T14:49:40.330Z,23.2
2023-01-22T14:54:40.190Z,25.3
2023-01-22T14:59:40.223Z,24.5
2023-01-22T15:04:40.115Z,18.9
2023-01-22T15:09:40.499Z,14.3
2023-01-22T15:14:40.132Z,10.9
2023-01-22T15:19:41.589Z,9.1
2023-01-22T15:24:40.504Z,7.7
2023-01-22T15:29:40.063Z,5.6
2023-01-22T15:34:40.479Z,4.5
2023-01-22T15:39:40.750Z,3.8
2023-01-22T15:44:40.104Z,3.3
2023-01-22T15:49:40.421Z,2.8
2023-01-22T15:54:40.209Z,2.6
2023-01-22T15:59:40.456Z,2.5
2023-01-22T16:04:40.361Z,2.3
2023-01-22T16:09:40.253Z,1.9
2023-01-22T16:14:40.477Z,1.2
2023-01-22T16:19:40.310Z,0.4
2023-01-22T16:24:40.431Z,0.1
2023-01-22T16:29:40.087Z,0
2023-01-22T16:34:40.194Z,0
2023-01-22T16:39:40.282Z,0
2023-01-22T16:44:39.951Z,0
2023-01-22T16:49:40.305Z,0
2023-01-22T16:54:40.226Z,0
2023-01-22T16:59:40.315Z,0
2023-01-22T17:04:40.491Z,0
2023-01-22T17:09:40.279Z,0
2023-01-22T17:14:40.179Z,0
2023-01-22T17:19:40.322Z,0
2023-01-22T17:24:40.442Z,0
2023-01-22T17:29:39.964Z,0
2023-01-22T17:34:40.261Z,0
2023-01-22T17:39:40.343Z,0
2023-01-22T17:44:41.020Z,0
2023-01-22T17:49:39.994Z,0
2023-01-22T17:54:40.354Z,0
2023-01-22T17:59:40.465Z,0
2023-01-22T18:04:40.173Z,0
2023-01-22T18:09:40.261Z,0
2023-01-22T18:14:40.017Z,0
2023-01-22T18:19:40.416Z,0
2023-01-22T18:24:40.098Z,0
2023-01-22T18:29:40.786Z,0
2023-01-22T18:34:40.028Z,0
2023-01-22T18:39:40.024Z,0
2023-01-22T18:44:39.944Z,0
2023-01-22T18:49:40.692Z,0
2023-01-22T18:54:40.296Z,0
2023-01-22T18:59:40.241Z,0
2023-01-22T19:04:40.124Z,0
2023-01-22T19:09:39.996Z,0
2023-01-22T19:14:40.378Z,0
2023-01-22T19:19:40.309Z,0
2023-01-22T19:24:40.242Z,0
2023-01-22T19:29:39.939Z,0
2023-01-22T19:34:40.398Z,0
2023-01-22T19:39:41.633Z,0
2023-01-22T19:44:39.848Z,0
2023-01-22T19:49:40.070Z,0
2023-01-22T19:54:40.538Z,0
2023-01-22T19:59:40.097Z,0
2023-01-22T20:04:40.428Z,0
2023-01-22T20:09:40.146Z,0
2023-01-22T20:14:39.910Z,0
2023-01-22T20:19:40.133Z,0
2023-01-22T20:24:39.895Z,0
2023-01-22T20:29:40.175Z,0
2023-01-22T20:34:40.020Z,0
2023-01-22T20:39:40.026Z,0
2023-01-22T20:44:40.503Z,0
2023-01-22T20:49:40.079Z,0
2023-01-22T20:54:54.916Z,0
2023-01-22T20:59:40.054Z,0
2023-01-22T21:04:40.282Z,0
2023-01-22T21:09:39.962Z,0
2023-01-22T21:14:40.513Z,0
2023-01-22T21:19:40.894Z,0
2023-01-22T21:24:40.192Z,0
2023-01-22T21:29:40.033Z,0
2023-01-22T21:34:40.276Z,0
2023-01-22T21:39:39.949Z,0
2023-01-22T21:44:40.211Z,0
2023-01-22T21:49:40.231Z,0
2023-01-22T21:54:40.300Z,0
2023-01-22T21:59:39.840Z,0
2023-01-22T22:04:40.556Z,0
2023-01-22T22:09:39.811Z,0
2023-01-22T22:14:39.859Z,0
2023-01-22T22:19:39.971Z,0
2023-01-22T22:24:39.931Z,0
2023-01-22T22:29:40.053Z,0
2023-01-22T22:34:40.003Z,0
2023-01-22T22:39:39.982Z,0
2023-01-22T22:44:40.243Z,0
2023-01-22T22:49:39.802Z,0
2023-01-22T22:54:39.966Z,0
2023-01-22T22:59:40.432Z,0
2023-01-22T23:04:39.869Z,0
2023-01-22T23:09:39.656Z,0
2023-01-22T23:14:39.990Z,0
2023-01-22T23:19:39.999Z,0
2023-01-22T23:24:39.938Z,0
2023-01-22T23:29:40.267Z,0
2023-01-22T23:34:40.015Z,0
2023-01-22T23:39:39.854Z,0
2023-01-22T23:44:40.217Z,0
2023-01-22T23:49:39.765Z,0
2023-01-22T23:54:39.924Z,0
2023-01-22T23:59:40.062Z,0
